createdAt,value
2023-04-28T00:00:19.499Z,4.05
2023-04-28T00:02:48.166Z,4.03
2023-04-28T00:05:15.579Z,4.00
2023-04-28T00:07:42.287Z,3.99
2023-04-28T00:10:09.624Z,3.96
2023-04-28T00:12:36.301Z,3.92
2023-04-28T00:15:03.703Z,3.89
2023-04-28T00:17:30.191Z,3.85
2023-04-28T00:19:57.755Z,3.91
2023-04-28T00:22:24.178Z,3.88
2023-04-28T00:24:50.594Z,3.86
2023-04-28T00:27:17.075Z,3.80
2023-04-28T00:29:43.644Z,3.81
2023-04-28T00:32:10.093Z,3.85
2023-04-28T00:34:37.483Z,3.86
2023-04-28T00:37:04.696Z,3.84
2023-04-28T00:39:31.225Z,3.85
2023-04-28T00:41:57.881Z,3.80
2023-04-28T00:44:24.478Z,3.80
2023-04-28T00:46:51.111Z,3.68
2023-04-28T00:49:17.519Z,3.60
2023-04-28T00:51:44.472Z,3.55
2023-04-28T00:54:14.105Z,3.57
2023-04-28T00:56:41.135Z,3.55
2023-04-28T00:59:07.669Z,3.52
2023-04-28T01:01:35.365Z,3.47
2023-04-28T01:04:02.233Z,3.45
2023-04-28T01:06:29.318Z,3.41
2023-04-28T01:08:55.955Z,3.45
2023-04-28T01:11:22.739Z,3.53
2023-04-28T01:13:49.334Z,3.51
2023-04-28T01:16:15.955Z,3.54
2023-04-28T01:18:47.622Z,3.51
2023-04-28T01:21:14.165Z,3.47
2023-04-28T01:23:40.825Z,3.50
2023-04-28T01:26:07.681Z,3.44
2023-04-28T01:28:34.263Z,3.35
2023-04-28T01:31:00.867Z,3.38
2023-04-28T01:33:28.012Z,3.45
2023-04-28T01:35:58.509Z,3.41
2023-04-28T01:38:25.210Z,3.39
2023-04-28T01:40:52.038Z,3.35
2023-04-28T01:43:18.864Z,3.35
2023-04-28T01:45:45.419Z,3.29
2023-04-28T01:48:12.378Z,3.32
2023-04-28T01:50:39.094Z,3.28
2023-04-28T01:53:05.741Z,3.29
2023-04-28T01:55:32.206Z,3.21
2023-04-28T01:57:59.515Z,3.17
2023-04-28T02:00:27.183Z,3.13
2023-04-28T02:02:53.963Z,3.08
2023-04-28T02:05:20.563Z,3.05
2023-04-28T02:07:47.269Z,3.08
2023-04-28T02:10:14.204Z,3.07
2023-04-28T02:12:42.659Z,3.04
2023-04-28T02:15:09.602Z,3.03
2023-04-28T02:17:36.382Z,2.97
2023-04-28T02:20:03.412Z,2.95
2023-04-28T02:22:30.195Z,2.90
2023-04-28T02:24:57.474Z,2.86
2023-04-28T02:27:24.054Z,2.83
2023-04-28T02:29:50.620Z,2.77
2023-04-28T02:32:17.118Z,2.78
2023-04-28T02:34:43.979Z,2.80
2023-04-28T02:37:10.487Z,2.79
2023-04-28T02:39:37.290Z,2.77
2023-04-28T02:42:05.470Z,2.77
2023-04-28T02:44:32.067Z,2.82
2023-04-28T02:46:58.948Z,2.83
2023-04-28T02:49:25.365Z,2.86
2023-04-28T02:51:52.062Z,2.93
2023-04-28T02:54:27.441Z,2.92
2023-04-28T02:56:54.693Z,3.03
2023-04-28T02:59:22.002Z,3.14
2023-04-28T03:01:48.886Z,3.17
2023-04-28T03:04:16.250Z,3.33
2023-04-28T03:06:43.111Z,3.34
2023-04-28T03:09:10.792Z,3.48
2023-04-28T03:11:37.246Z,3.57
2023-04-28T03:14:04.496Z,3.57
2023-04-28T03:16:31.113Z,3.56
2023-04-28T03:18:57.572Z,3.51
2023-04-28T03:21:24.461Z,3.55
2023-04-28T03:23:51.044Z,3.45
2023-04-28T03:26:17.606Z,3.46
2023-04-28T03:28:44.217Z,3.45
2023-04-28T03:31:10.904Z,3.47
2023-04-28T03:33:37.296Z,3.44
2023-04-28T03:36:04.045Z,3.53
2023-04-28T03:38:30.478Z,3.39
2023-04-28T03:40:56.975Z,3.37
2023-04-28T03:43:23.532Z,3.32
2023-04-28T03:45:50.190Z,3.40
2023-04-28T03:48:16.842Z,3.43
2023-04-28T03:50:45.541Z,3.44
2023-04-28T03:53:12.712Z,3.37
2023-04-28T03:55:39.946Z,3.43
2023-04-28T03:58:07.020Z,3.42
2023-04-28T04:00:33.532Z,3.40
2023-04-28T04:03:00.274Z,3.58
2023-04-28T04:05:26.986Z,3.60
2023-04-28T04:07:53.539Z,3.66
2023-04-28T04:10:19.966Z,3.74
2023-04-28T04:12:46.480Z,3.70
2023-04-28T04:15:13.056Z,3.70
2023-04-28T04:17:39.581Z,3.72
2023-04-28T04:20:07.355Z,3.85
2023-04-28T04:22:34.352Z,4.01
2023-04-28T04:25:00.928Z,4.05
2023-04-28T04:27:27.416Z,4.33
2023-04-28T04:29:53.861Z,4.30
2023-04-28T04:32:20.277Z,4.58
2023-04-28T04:34:46.868Z,4.69
2023-04-28T04:37:13.397Z,4.66
2023-04-28T04:39:39.941Z,4.58
2023-04-28T04:42:20.647Z,4.74
2023-04-28T04:44:50.680Z,4.96
2023-04-28T04:47:17.854Z,5.10
2023-04-28T04:49:44.442Z,4.90
2023-04-28T04:52:11.079Z,5.01
2023-04-28T04:54:38.202Z,5.09
2023-04-28T04:57:04.814Z,5.05
2023-04-28T04:59:31.226Z,5.11
2023-04-28T05:01:57.832Z,5.12
2023-04-28T05:04:24.467Z,5.25
2023-04-28T05:06:51.569Z,5.27
2023-04-28T05:09:18.211Z,5.40
2023-04-28T05:11:45.534Z,5.34
2023-04-28T05:14:12.085Z,5.54
2023-04-28T05:16:39.103Z,5.49
2023-04-28T05:19:05.738Z,5.56
2023-04-28T05:21:32.683Z,5.73
2023-04-28T05:23:59.386Z,6.04
2023-04-28T05:26:26.206Z,6.27
2023-04-28T05:28:52.692Z,6.23
2023-04-28T05:31:19.202Z,6.36
2023-04-28T05:33:46.020Z,6.44
2023-04-28T05:36:12.834Z,6.39
2023-04-28T05:38:39.488Z,6.75
2023-04-28T05:41:06.229Z,6.98
2023-04-28T05:43:32.688Z,7.35
2023-04-28T05:46:00.598Z,7.57
2023-04-28T05:48:27.175Z,7.47
2023-04-28T05:50:53.568Z,7.50
2023-04-28T05:53:20.409Z,7.78
2023-04-28T05:55:46.927Z,7.93
2023-04-28T05:58:13.489Z,8.10
2023-04-28T06:00:39.860Z,7.97
2023-04-28T06:03:08.653Z,7.71
2023-04-28T06:05:35.508Z,8.23
2023-04-28T06:08:03.572Z,8.58
2023-04-28T06:10:30.029Z,10.09
2023-04-28T06:12:56.612Z,11.14
2023-04-28T06:15:23.026Z,12.65
2023-04-28T06:17:49.676Z,14.01
2023-04-28T06:20:16.661Z,14.61
2023-04-28T06:22:43.313Z,15.54
2023-04-28T06:25:09.852Z,15.27
2023-04-28T06:27:36.536Z,15.07
2023-04-28T06:30:03.560Z,14.63
2023-04-28T06:32:30.372Z,14.32
2023-04-28T06:34:58.391Z,13.57
2023-04-28T06:37:25.324Z,13.24
2023-04-28T06:39:51.766Z,13.21
2023-04-28T06:42:20.382Z,12.82
2023-04-28T06:44:47.188Z,12.92
2023-04-28T06:47:13.779Z,12.78
2023-04-28T06:49:40.242Z,12.61
2023-04-28T06:52:07.943Z,12.86
2023-04-28T06:54:34.656Z,13.50
2023-04-28T06:57:01.058Z,13.34
2023-04-28T06:59:28.038Z,13.43
2023-04-28T07:01:54.545Z,13.82
2023-04-28T07:04:21.442Z,13.95
2023-04-28T07:06:48.260Z,13.58
2023-04-28T07:09:15.951Z,14.22
2023-04-28T07:11:42.746Z,13.76
2023-04-28T07:14:09.403Z,13.96
2023-04-28T07:16:36.056Z,14.32
2023-04-28T07:19:02.480Z,14.09
2023-04-28T07:21:28.961Z,14.07
2023-04-28T07:23:56.949Z,13.84
2023-04-28T07:26:24.060Z,14.01
2023-04-28T07:28:50.506Z,13.87
2023-04-28T07:31:17.673Z,13.78
2023-04-28T07:33:44.523Z,13.37
2023-04-28T07:36:11.157Z,13.71
2023-04-28T07:38:37.669Z,14.16
2023-04-28T07:41:05.718Z,14.40
2023-04-28T07:43:34.041Z,14.73
2023-04-28T07:46:00.630Z,15.37
2023-04-28T07:48:27.357Z,16.80
2023-04-28T07:50:54.137Z,17.26
2023-04-28T07:53:21.226Z,16.79
2023-04-28T07:55:47.702Z,15.48
2023-04-28T07:58:14.232Z,15.79
2023-04-28T08:00:41.232Z,15.62
2023-04-28T08:03:08.004Z,15.02
2023-04-28T08:05:34.632Z,15.37
2023-04-28T08:08:01.190Z,15.51
2023-04-28T08:10:28.401Z,15.83
2023-04-28T08:12:54.917Z,16.15
2023-04-28T08:15:21.428Z,16.29
2023-04-28T08:17:47.926Z,16.31
2023-04-28T08:20:21.077Z,16.39
2023-04-28T08:22:48.797Z,16.72
2023-04-28T08:25:15.960Z,17.74
2023-04-28T08:27:42.431Z,17.83
2023-04-28T08:30:10.078Z,16.96
2023-04-28T08:32:36.696Z,16.42
2023-04-28T08:35:03.636Z,15.72
2023-04-28T08:37:30.900Z,15.61
2023-04-28T08:40:04.790Z,14.71
2023-04-28T08:42:32.107Z,14.51
2023-04-28T08:45:02.266Z,14.64
2023-04-28T08:47:34.166Z,14.93
2023-04-28T08:50:06.044Z,15.07
2023-04-28T08:52:33.261Z,15.78
2023-04-28T08:55:01.664Z,16.14
2023-04-28T08:57:30.962Z,17.07
2023-04-28T08:59:58.599Z,17.48
2023-04-28T09:02:25.559Z,17.87
2023-04-28T09:04:52.560Z,18.04
2023-04-28T09:07:19.369Z,17.42
2023-04-28T09:09:46.040Z,17.16
2023-04-28T09:12:12.489Z,16.82
2023-04-28T09:14:39.278Z,16.54
2023-04-28T09:17:13.764Z,16.37
2023-04-28T09:19:43.394Z,16.33
2023-04-28T09:22:24.768Z,16.54
2023-04-28T09:24:53.224Z,16.72
2023-04-28T09:27:26.756Z,16.53
2023-04-28T09:29:54.164Z,16.06
2023-04-28T09:32:22.427Z,16.14
2023-04-28T09:34:54.207Z,15.98
2023-04-28T09:37:22.589Z,15.96
2023-04-28T09:39:51.025Z,16.10
2023-04-28T09:42:37.462Z,16.23
2023-04-28T09:45:11.327Z,16.11
2023-04-28T09:47:42.901Z,16.36
2023-04-28T09:50:14.413Z,16.36
2023-04-28T09:52:42.195Z,16.30
2023-04-28T09:55:09.428Z,16.39
2023-04-28T09:57:36.518Z,16.49
2023-04-28T10:00:06.833Z,16.53
2023-04-28T10:02:43.336Z,16.68
2023-04-28T10:05:11.545Z,16.90
2023-04-28T10:07:39.138Z,16.98
2023-04-28T10:10:07.470Z,16.85
2023-04-28T10:12:34.809Z,16.89
2023-04-28T10:15:02.102Z,16.81
2023-04-28T10:17:29.685Z,17.06
2023-04-28T10:19:57.195Z,17.02
2023-04-28T10:22:55.954Z,17.00
2023-04-28T10:25:30.167Z,16.61
2023-04-28T10:27:57.951Z,16.34
2023-04-28T10:30:28.612Z,15.96
2023-04-28T10:33:14.346Z,15.44
2023-04-28T10:35:45.668Z,15.21
2023-04-28T10:38:14.755Z,15.04
2023-04-28T10:40:45.499Z,14.82
2023-04-28T10:43:33.054Z,14.80
2023-04-28T10:46:01.188Z,14.32
2023-04-28T10:48:33.988Z,13.96
2023-04-28T10:51:03.671Z,13.51
2023-04-28T10:53:42.681Z,13.14
2023-04-28T10:56:09.756Z,12.90
2023-04-28T10:58:39.908Z,12.75
2023-04-28T11:01:18.769Z,12.45
2023-04-28T11:03:52.470Z,12.39
2023-04-28T11:06:26.835Z,12.34
2023-04-28T11:08:55.665Z,12.21
2023-04-28T11:11:27.400Z,12.19
2023-04-28T11:13:56.499Z,12.36
2023-04-28T11:16:25.596Z,12.47
2023-04-28T11:19:03.810Z,12.51
2023-04-28T11:21:31.046Z,12.52
2023-04-28T11:23:58.711Z,12.57
2023-04-28T11:26:25.649Z,12.65
2023-04-28T11:28:54.422Z,12.82
2023-04-28T11:31:25.399Z,12.99
2023-04-28T11:34:07.629Z,13.16
2023-04-28T11:36:36.760Z,13.22
2023-04-28T11:39:08.425Z,13.11
2023-04-28T11:41:36.522Z,13.04
2023-04-28T11:44:23.541Z,13.05
2023-04-28T11:46:51.740Z,12.81
2023-04-28T11:49:18.856Z,12.77
2023-04-28T11:51:47.380Z,12.76
2023-04-28T11:54:14.995Z,12.90
2023-04-28T11:56:42.318Z,13.01
2023-04-28T11:59:10.675Z,12.92
2023-04-28T12:01:59.050Z,13.01
2023-04-28T12:04:39.467Z,13.12
2023-04-28T12:07:10.543Z,13.39
2023-04-28T12:09:39.000Z,13.47
2023-04-28T12:12:07.367Z,13.45
2023-04-28T12:15:01.507Z,13.39
2023-04-28T12:17:32.478Z,13.50
2023-04-28T12:20:01.422Z,13.53
2023-04-28T12:22:28.227Z,13.29
2023-04-28T12:25:22.360Z,13.12
2023-04-28T12:28:08.188Z,12.98
2023-04-28T12:30:42.289Z,13.03
2023-04-28T12:33:29.024Z,13.15
2023-04-28T12:35:58.920Z,13.37
2023-04-28T12:38:26.434Z,13.30
2023-04-28T12:40:53.236Z,13.45
2023-04-28T12:43:21.114Z,13.43
2023-04-28T12:45:47.708Z,13.48
2023-04-28T12:48:14.180Z,13.57
2023-04-28T12:50:40.792Z,13.45
2023-04-28T12:53:07.437Z,13.59
2023-04-28T12:55:33.871Z,13.69
2023-04-28T12:58:00.494Z,13.29
2023-04-28T13:00:27.140Z,12.98
2023-04-28T13:02:53.743Z,12.63
2023-04-28T13:05:20.585Z,12.45
2023-04-28T13:07:47.716Z,12.42
2023-04-28T13:10:14.251Z,12.53
2023-04-28T13:12:41.559Z,12.64
2023-04-28T13:15:08.777Z,12.56
2023-04-28T13:17:35.575Z,12.49
2023-04-28T13:20:03.751Z,12.42
2023-04-28T13:22:30.238Z,12.37
2023-04-28T13:24:56.621Z,12.38
2023-04-28T13:27:23.378Z,12.41
2023-04-28T13:29:49.815Z,12.45
2023-04-28T13:32:16.344Z,12.44
2023-04-28T13:34:42.844Z,12.40
2023-04-28T13:37:09.436Z,12.31
2023-04-28T13:39:35.938Z,12.32
2023-04-28T13:42:02.586Z,12.33
2023-04-28T13:44:29.144Z,12.37
2023-04-28T13:46:56.282Z,12.44
2023-04-28T13:49:23.809Z,12.55
2023-04-28T13:51:50.348Z,12.60
2023-04-28T13:54:16.784Z,12.61
2023-04-28T13:56:44.053Z,12.59
2023-04-28T13:59:11.044Z,12.53
2023-04-28T14:01:37.630Z,12.47
2023-04-28T14:04:04.726Z,12.34
2023-04-28T14:06:32.976Z,12.32
2023-04-28T14:09:01.264Z,12.30
2023-04-28T14:11:27.865Z,12.19
2023-04-28T14:13:54.473Z,12.17
2023-04-28T14:16:21.469Z,12.20
2023-04-28T14:18:47.940Z,12.25
2023-04-28T14:21:14.397Z,12.34
2023-04-28T14:23:41.078Z,12.41
2023-04-28T14:26:07.716Z,12.50
2023-04-28T14:28:35.060Z,12.63
2023-04-28T14:31:07.336Z,12.63
2023-04-28T14:33:34.080Z,12.73
2023-04-28T14:36:02.551Z,12.86
2023-04-28T14:38:30.588Z,12.83
2023-04-28T14:40:57.547Z,12.75
2023-04-28T14:43:24.747Z,12.79
2023-04-28T14:45:51.616Z,12.88
2023-04-28T14:48:18.651Z,12.92
2023-04-28T14:50:46.184Z,13.07
2023-04-28T14:53:12.777Z,13.17
2023-04-28T14:55:39.140Z,13.23
2023-04-28T14:58:05.604Z,13.17
2023-04-28T15:00:32.123Z,13.17
2023-04-28T15:02:58.800Z,13.26
2023-04-28T15:05:25.606Z,13.15
2023-04-28T15:07:52.616Z,13.24
2023-04-28T15:10:19.220Z,13.36
2023-04-28T15:12:48.225Z,13.42
2023-04-28T15:15:15.272Z,13.48
2023-04-28T15:17:41.770Z,13.51
2023-04-28T15:20:09.012Z,13.49
2023-04-28T15:22:36.626Z,13.44
2023-04-28T15:25:03.385Z,13.38
2023-04-28T15:27:29.926Z,13.45
2023-04-28T15:29:56.436Z,13.42
2023-04-28T15:32:23.368Z,13.45
2023-04-28T15:34:50.082Z,13.37
2023-04-28T15:37:43.268Z,13.38
2023-04-28T15:40:11.878Z,13.42
2023-04-28T15:42:41.992Z,13.36
2023-04-28T15:45:10.394Z,13.50
2023-04-28T15:47:38.824Z,13.48
2023-04-28T15:50:06.391Z,13.43
2023-04-28T15:52:35.940Z,13.35
2023-04-28T15:55:02.654Z,13.41
2023-04-28T15:57:29.660Z,13.33
2023-04-28T15:59:56.257Z,13.30
2023-04-28T16:02:23.541Z,13.33
2023-04-28T16:04:51.421Z,13.33
2023-04-28T16:07:18.290Z,13.34
2023-04-28T16:09:44.838Z,13.22
2023-04-28T16:12:11.716Z,13.22
2023-04-28T16:14:38.253Z,13.24
2023-04-28T16:17:04.974Z,13.29
2023-04-28T16:19:31.621Z,13.30
2023-04-28T16:21:58.270Z,13.34
2023-04-28T16:24:25.926Z,13.35
2023-04-28T16:26:52.481Z,13.34
2023-04-28T16:29:18.983Z,13.34
2023-04-28T16:31:45.709Z,13.18
2023-04-28T16:34:12.324Z,13.27
2023-04-28T16:36:40.189Z,13.18
2023-04-28T16:39:06.974Z,13.18
2023-04-28T16:41:33.554Z,13.19
2023-04-28T16:44:00.021Z,13.13
2023-04-28T16:46:26.819Z,13.11
2023-04-28T16:48:53.242Z,13.12
2023-04-28T16:51:19.739Z,13.06
2023-04-28T16:53:46.182Z,13.07
2023-04-28T16:56:12.708Z,13.02
2023-04-28T16:58:39.388Z,13.02
2023-04-28T17:01:06.018Z,12.98
2023-04-28T17:03:33.892Z,12.97
2023-04-28T17:06:00.849Z,12.93
2023-04-28T17:08:27.368Z,12.87
2023-04-28T17:10:53.913Z,12.87
2023-04-28T17:13:20.410Z,12.87
2023-04-28T17:15:54.337Z,12.83
2023-04-28T17:18:21.115Z,12.88
2023-04-28T17:20:48.139Z,12.84
2023-04-28T17:23:15.243Z,12.80
2023-04-28T17:25:41.744Z,12.82
2023-04-28T17:28:08.264Z,12.81
2023-04-28T17:30:35.668Z,12.73
2023-04-28T17:33:02.863Z,12.71
2023-04-28T17:35:30.207Z,12.76
2023-04-28T17:37:57.036Z,12.80
2023-04-28T17:40:24.192Z,12.76
2023-04-28T17:42:51.477Z,12.72
2023-04-28T17:45:18.119Z,12.75
2023-04-28T17:47:44.656Z,12.68
2023-04-28T17:50:11.288Z,12.72
2023-04-28T17:52:38.914Z,12.77
2023-04-28T17:55:06.047Z,12.70
2023-04-28T17:57:33.619Z,12.66
2023-04-28T18:00:00.486Z,12.69
2023-04-28T18:02:27.361Z,12.62
2023-04-28T18:04:54.985Z,12.66
2023-04-28T18:07:21.659Z,12.66
2023-04-28T18:09:48.225Z,12.69
2023-04-28T18:12:17.231Z,12.69
2023-04-28T18:14:44.424Z,12.68
2023-04-28T18:17:11.157Z,12.66
2023-04-28T18:19:37.782Z,12.66
2023-04-28T18:22:05.503Z,12.59
2023-04-28T18:24:32.430Z,12.63
2023-04-28T18:26:59.306Z,12.64
2023-04-28T18:29:25.858Z,12.63
2023-04-28T18:31:52.461Z,12.62
2023-04-28T18:34:19.112Z,12.59
2023-04-28T18:36:45.676Z,12.61
2023-04-28T18:39:12.565Z,12.63
2023-04-28T18:41:40.218Z,12.55
2023-04-28T18:44:06.823Z,12.60
2023-04-28T18:46:34.048Z,12.67
2023-04-28T18:49:00.620Z,12.65
2023-04-28T18:51:27.334Z,12.63
2023-04-28T18:53:54.361Z,12.63
2023-04-28T18:56:21.818Z,12.63
2023-04-28T18:58:48.399Z,12.63
2023-04-28T19:01:16.258Z,12.67
2023-04-28T19:03:43.716Z,12.63
2023-04-28T19:06:11.147Z,12.60
2023-04-28T19:08:39.107Z,12.56
2023-04-28T19:11:07.135Z,12.67
2023-04-28T19:13:34.404Z,12.64
2023-04-28T19:16:02.154Z,12.59
2023-04-28T19:18:30.353Z,12.65
2023-04-28T19:21:01.617Z,12.63
2023-04-28T19:23:29.045Z,12.66
2023-04-28T19:25:59.152Z,12.64
2023-04-28T19:28:26.738Z,12.63
2023-04-28T19:30:54.642Z,12.56
2023-04-28T19:33:24.900Z,12.55
2023-04-28T19:35:56.474Z,12.53
2023-04-28T19:38:23.361Z,12.54
2023-04-28T19:40:53.402Z,12.45
2023-04-28T19:43:19.876Z,12.49
2023-04-28T19:45:47.186Z,12.46
2023-04-28T19:48:14.479Z,12.49
2023-04-28T19:50:42.165Z,12.43
2023-04-28T19:53:09.418Z,12.44
2023-04-28T19:55:36.486Z,12.41
2023-04-28T19:58:04.920Z,12.42
2023-04-28T20:00:32.575Z,12.41
2023-04-28T20:02:59.864Z,12.33
2023-04-28T20:05:27.336Z,12.34
2023-04-28T20:07:56.169Z,12.32
2023-04-28T20:10:23.851Z,12.36
2023-04-28T20:12:50.810Z,12.35
2023-04-28T20:15:18.328Z,12.32
2023-04-28T20:17:47.189Z,12.28
2023-04-28T20:20:13.855Z,12.29
2023-04-28T20:22:41.165Z,12.26
2023-04-28T20:25:10.289Z,12.22
2023-04-28T20:27:37.058Z,12.28
2023-04-28T20:30:04.524Z,12.28
2023-04-28T20:32:31.800Z,12.22
2023-04-28T20:34:58.450Z,12.21
2023-04-28T20:37:26.377Z,12.23
2023-04-28T20:39:53.219Z,12.21
2023-04-28T20:42:19.787Z,12.16
2023-04-28T20:44:46.571Z,12.16
2023-04-28T20:47:14.122Z,12.07
2023-04-28T20:49:41.928Z,12.02
2023-04-28T20:52:08.722Z,11.93
2023-04-28T20:54:39.834Z,11.87
2023-04-28T20:57:06.603Z,11.79
2023-04-28T20:59:33.414Z,11.65
2023-04-28T21:02:00.295Z,11.73
2023-04-28T21:04:28.034Z,11.81
2023-04-28T21:06:54.716Z,11.85
2023-04-28T21:09:22.576Z,11.92
2023-04-28T21:11:49.166Z,11.99
2023-04-28T21:14:15.636Z,12.02
2023-04-28T21:16:43.565Z,12.06
2023-04-28T21:19:10.658Z,12.06
2023-04-28T21:21:37.681Z,12.08
2023-04-28T21:24:05.911Z,12.09
2023-04-28T21:26:32.560Z,12.09
2023-04-28T21:28:59.194Z,12.12
2023-04-28T21:31:26.534Z,12.06
2023-04-28T21:33:53.302Z,12.17
2023-04-28T21:36:19.832Z,12.16
2023-04-28T21:38:46.486Z,12.17
2023-04-28T21:41:13.363Z,12.25
2023-04-28T21:43:40.559Z,12.13
2023-04-28T21:46:07.199Z,12.15
2023-04-28T21:48:33.738Z,12.13
2023-04-28T21:51:01.317Z,12.02
2023-04-28T21:53:28.708Z,12.14
2023-04-28T21:55:55.553Z,12.04
2023-04-28T21:58:22.234Z,12.14
2023-04-28T22:00:48.800Z,12.12
2023-04-28T22:03:16.225Z,12.08
2023-04-28T22:05:44.185Z,12.04
2023-04-28T22:08:10.792Z,12.06
2023-04-28T22:10:37.988Z,12.07
2023-04-28T22:13:05.223Z,12.02
2023-04-28T22:15:32.974Z,12.04
2023-04-28T22:17:59.958Z,11.99
2023-04-28T22:20:27.003Z,11.92
2023-04-28T22:22:53.964Z,12.00
2023-04-28T22:25:20.592Z,11.98
2023-04-28T22:27:47.189Z,12.02
2023-04-28T22:30:13.919Z,12.01
2023-04-28T22:32:44.612Z,12.09
2023-04-28T22:35:14.403Z,12.13
2023-04-28T22:37:41.130Z,12.19
2023-04-28T22:40:08.843Z,12.15
2023-04-28T22:42:39.972Z,12.15
2023-04-28T22:45:07.211Z,12.13
2023-04-28T22:47:34.680Z,12.11
2023-04-28T22:50:04.315Z,12.10
2023-04-28T22:52:31.656Z,12.04
2023-04-28T22:54:58.439Z,11.76
2023-04-28T22:57:25.112Z,11.55
2023-04-28T22:59:51.788Z,11.41
2023-04-28T23:02:18.877Z,11.41
2023-04-28T23:04:45.792Z,11.42
2023-04-28T23:07:12.599Z,11.35
2023-04-28T23:09:39.089Z,11.32
2023-04-28T23:12:06.057Z,11.31
2023-04-28T23:14:33.084Z,11.28
2023-04-28T23:16:59.831Z,11.29
2023-04-28T23:19:26.710Z,11.39
2023-04-28T23:21:55.628Z,11.39
2023-04-28T23:24:24.957Z,11.39
2023-04-28T23:26:51.950Z,11.46
2023-04-28T23:29:18.554Z,11.45
2023-04-28T23:31:52.373Z,11.42
2023-04-28T23:34:19.668Z,11.35
2023-04-28T23:36:46.585Z,11.25
2023-04-28T23:39:13.564Z,11.25
2023-04-28T23:41:41.277Z,11.25
2023-04-28T23:44:08.488Z,11.22
2023-04-28T23:46:35.252Z,11.26
2023-04-28T23:49:02.105Z,11.24
2023-04-28T23:51:28.701Z,11.35
2023-04-28T23:53:55.632Z,11.38
2023-04-28T23:56:22.808Z,11.33
2023-04-28T23:58:49.420Z,11.31
